Flight Track Log - Related Links

Times and Time Zones

All times are in EDT time to prevent confusion due to time zone crossing. See the AAL1054 flight status page for this flight to view local times or setup timezone preferences in your user account.

Time Position Orientation Groundspeed Altitude Reporting Facility
EDT Latitude Longitude Course Direction KTS MPH feet Rate Location/Type
Tue 04:57:09 PM 32.1292 -110.9581 76° East 178 205 3,600  Level Albuquerque Center
Tue 04:57:58 PM 32.1622 -110.9944 317° Northwest 199 229 5,100 1,909 Climbing Albuquerque Center
Tue 04:58:59 PM 32.2156 -111.0053 350° North 235 270 7,100 1,820 Climbing Albuquerque Center
Tue 04:59:00 PM 31.9089 -110.6355 106° East  Level FlightAware Approximate
Tue 05:00:00 PM 31.8872 -110.5105 100° East  Level FlightAware Approximate
Tue 05:00:00 PM 32.2256 -110.9258 82° East 266 306 8,800  Level Albuquerque Center
Tue 05:01:00 PM 31.9000 -110.3854 90° East  Level FlightAware Approximate
Tue 05:01:02 PM 32.2142 -110.8289 98° East 297 342 10,500  Level Albuquerque Center
Tue 05:02:00 PM 31.9227 -110.2609 76° East  Level FlightAware Approximate
Tue 05:02:03 PM 32.2056 -110.7089 95° East 359 413 11,600  Level Albuquerque Center
Tue 05:03:05 PM 32.1978 -110.5750 94° East 396 456 13,900 2,274 Climbing Albuquerque Center
Tue 05:04:07 PM 32.1814 -110.4081 97° East 422 486 16,300 1,984 Climbing Albuquerque Center
Tue 05:05:09 PM 32.1744 -110.2839 94° East 434 499 18,000 1,854 Climbing Albuquerque Center
Tue 05:06:10 PM 32.1619 -110.1081 95° East 449 517 20,100 1,756 Climbing Albuquerque Center
Tue 05:07:12 PM 32.1514 -109.9597 95° East 456 525 21,600 1,452 Climbing Albuquerque Center
Tue 05:08:14 PM 32.1361 -109.8047 97° East 472 543 23,100 1,317 Climbing Albuquerque Center
Tue 05:09:15 PM 32.1244 -109.6514 95° East 475 547 24,300 1,366 Climbing Albuquerque Center
Tue 05:10:17 PM 32.1136 -109.4944 95° East 482 555 25,900 1,500 Climbing Albuquerque Center
Tue 05:11:19 PM 32.0969 -109.3056 96° East 486 559 27,400 1,790 Climbing Albuquerque Center
Tue 05:12:21 PM 32.0856 -109.1514 95° East 483 556 29,600 1,659 Climbing Albuquerque Center
Tue 05:13:22 PM 32.0725 -109.0017 96° East 471 542 30,800 1,024 Climbing Albuquerque Center
Tue 05:14:24 PM 32.0603 -108.8528 95° East 465 535 31,700 968 Climbing Albuquerque Center
Tue 05:15:26 PM 32.0481 -108.7036 95° East 464 534 32,800 629 Climbing Albuquerque Center
Tue 05:16:28 PM 32.0319 -108.5267 96° East 460 529 33,000 98 Climbing Albuquerque Center
Tue 05:17:29 PM 32.0189 -108.3789 96° East 460 529 33,000  Level Albuquerque Center
Tue 05:18:31 PM 32.0064 -108.2306 96° East 459 528 33,000  Level Albuquerque Center
Tue 05:19:33 PM 31.9911 -108.0631 96° East 461 531 33,000 -48 Level Albuquerque Center
Tue 05:20:35 PM 31.9772 -107.9133 96° East 462 532 32,900  Descending Albuquerque Center
Tue 05:21:36 PM 31.9639 -107.7633 96° East 463 533 33,000 49 Climbing Albuquerque Center
Tue 05:22:38 PM 31.9500 -107.6136 96° East 464 534 33,000  Level Albuquerque Center
Tue 05:23:40 PM 31.9353 -107.4636 97° East 465 535 33,000  Level Albuquerque Center
Tue 05:24:42 PM 31.9217 -107.3144 96° East 464 534 33,000  Level Albuquerque Center
Tue 05:25:44 PM 31.9042 -107.1361 97° East 462 532 33,000  Level Albuquerque Center
Tue 05:26:45 PM 31.8897 -106.9881 97° East 461 531 33,000  Level Albuquerque Center
Tue 05:27:47 PM 31.8742 -106.8392 97° East 463 533 33,000  Level Albuquerque Center
Tue 05:28:49 PM 31.8594 -106.6908 97° East 460 529 33,000  Level Albuquerque Center
Tue 05:29:51 PM 31.8417 -106.5253 97° East 461 531 33,000  Level Albuquerque Center
Tue 05:30:53 PM 31.8272 -106.3756 96° East 463 533 33,000  Level Albuquerque Center
Tue 05:31:54 PM 31.8142 -106.2256 96° East 460 529 33,000 -49 Level Albuquerque Center
Tue 05:32:56 PM 31.8058 -106.0783 94° East 456 525 32,900  Descending Albuquerque Center
Tue 05:33:58 PM 31.7986 -105.9292 93° East 456 525 33,000 48 Climbing Albuquerque Center
Tue 05:35:00 PM 31.7914 -105.7797 93° East 458 527 33,000  Level Albuquerque Center
Tue 05:36:02 PM 31.7822 -105.6014 93° East 456 525 33,000  Level Albuquerque Center
Tue 05:37:03 PM 31.7750 -105.4508 93° East 460 529 33,000 -49 Level Albuquerque Center
Tue 05:38:05 PM 31.7689 -105.3014 93° East 460 529 32,900  Descending Albuquerque Center
Tue 05:39:07 PM 31.7900 -105.1536 80° East 462 532 33,000 48 Climbing Albuquerque Center
Tue 05:40:09 PM 31.8058 -105.0058 83° East 456 525 33,000  Level Albuquerque Center
Tue 05:41:11 PM 31.8225 -104.8581 82° East 456 525 33,000  Level Albuquerque Center
Tue 05:42:13 PM 31.8369 -104.7100 83° East 455 524 33,000 -48 Level Albuquerque Center
Tue 05:43:15 PM 31.8528 -104.5597 83° East 460 529 32,900  Descending Albuquerque Center
Tue 05:44:17 PM 31.8700 -104.3808 83° East 459 528 33,000 49 Climbing Albuquerque Center
Tue 05:45:18 PM 31.8850 -104.2333 83° East 456 525 33,000  Level Albuquerque Center
Tue 05:46:20 PM 31.9000 -104.0839 83° East 458 527 33,000  Level Albuquerque Center
Tue 05:47:22 PM 31.9158 -103.9306 83° East 459 528 33,000  Level Albuquerque Center
Tue 05:48:24 PM 31.9289 -103.7797 84° East 461 531 33,000  Level Albuquerque Center
Tue 05:49:25 PM 31.9422 -103.6281 84° East 466 536 33,000  Level Albuquerque Center
Tue 05:50:27 PM 31.9569 -103.4739 84° East 472 543 33,000  Level Albuquerque Center
Tue 05:51:29 PM 31.9714 -103.2875 85° East 477 549 33,000  Level Albuquerque Center
Tue 05:52:31 PM 31.9867 -103.1339 83° East 476 548 33,000  Level Albuquerque Center
Tue 05:53:21 PM 31.9972 -103.0006 85° East 478 550 33,000  Level Fort Worth Center
Tue 05:54:22 PM 32.0103 -102.8469 84° East 478 550 33,000  Level Fort Worth Center
Tue 05:55:21 PM 32.0225 -102.7056 84° East 478 550 33,000  Level Fort Worth Center
Tue 05:56:21 PM 32.0353 -102.5494 84° East 478 550 33,000  Level Fort Worth Center
Tue 05:57:21 PM 32.0500 -102.3911 84° East 478 550 33,000  Level Fort Worth Center
Tue 05:58:21 PM 32.0622 -102.2350 85° East 483 556 33,000  Level Fort Worth Center
Tue 05:59:21 PM 32.0744 -102.0764 85° East 478 550 33,000  Level Fort Worth Center
Tue 06:00:21 PM 32.0867 -101.9175 85° East 478 550 33,000  Level Fort Worth Center
Tue 06:01:21 PM 32.0983 -101.7636 85° East 478 550 33,000  Level Fort Worth Center
Tue 06:02:21 PM 32.1097 -101.6072 85° East 478 550 33,000  Level Fort Worth Center
Tue 06:03:22 PM 32.1256 -101.4461 83° East 478 550 33,000  Level Fort Worth Center
Tue 06:04:21 PM 32.1347 -101.2869 86° East 478 550 33,000  Level Fort Worth Center
Tue 06:05:21 PM 32.1458 -101.1306 85° East 478 550 33,000  Level Fort Worth Center
Tue 06:06:22 PM 32.1586 -100.9739 84° East 478 550 33,000  Level Fort Worth Center
Tue 06:07:21 PM 32.1692 -100.8150 85° East 478 550 33,000  Level Fort Worth Center
Tue 06:08:21 PM 32.1797 -100.6558 85° East 478 550 33,000  Level Fort Worth Center
Tue 06:09:22 PM 32.1900 -100.4989 86° East 478 550 33,000  Level Fort Worth Center
Tue 06:10:21 PM 32.2000 -100.3397 86° East 478 550 33,000  Level Fort Worth Center
Tue 06:11:21 PM 32.2100 -100.1831 86° East 478 550 33,000  Level Fort Worth Center
Tue 06:12:22 PM 32.2194 -100.0261 86° East 478 550 33,000  Level Fort Worth Center
Tue 06:13:21 PM 32.2289 -99.8644 86° East 483 556 33,000  Level Fort Worth Center
Tue 06:14:21 PM 32.2278 -99.7047 90° East 478 550 33,000  Level Fort Worth Center
Tue 06:15:22 PM 32.2244 -99.5450 91° East 478 550 33,000  Level Fort Worth Center
Tue 06:16:21 PM 32.2206 -99.3903 92° East 478 550 33,000  Level Fort Worth Center
Tue 06:17:22 PM 32.2128 -99.2303 93° East 478 550 33,000  Level Fort Worth Center
Tue 06:18:22 PM 32.2086 -99.0733 92° East 478 550 33,000  Level Fort Worth Center
Tue 06:19:21 PM 32.2022 -98.9136 93° East 478 550 33,000 -958 Level Fort Worth Center
Tue 06:20:21 PM 32.2144 -98.7567 85° East 478 550 31,100 -2,350 Descending Fort Worth Center
Tue 06:21:21 PM 32.2411 -98.5900 79° East 471 542 28,300 -2,700 Descending Fort Worth Center
Tue 06:22:21 PM 32.2594 -98.4256 82° East 484 557 25,700 -2,650 Descending Fort Worth Center
Tue 06:23:21 PM 32.2753 -98.2611 83° East 495 570 23,000 -2,777 Descending Fort Worth Center
Tue 06:24:22 PM 32.2928 -98.1089 82° East 487 560 20,100 -2,600 Descending Fort Worth Center
Tue 06:25:21 PM 32.3081 -97.9614 83° East 461 531 17,800 -2,420 Descending Fort Worth Center
Tue 06:26:21 PM 32.3233 -97.8189 83° East 450 518 15,300 -1,800 Descending Fort Worth Center
Tue 06:27:21 PM 32.3339 -97.7208 83° East 404 465 14,200 -1,650 Descending Fort Worth Center
Tue 06:28:21 PM 32.3969 -97.6003 58° Northeast 351 404 12,000 -1,600 Descending Fort Worth Center
Tue 06:29:21 PM 32.4681 -97.5094 47° Northeast 370 426 11,000 -496 Descending Fort Worth Center
Tue 06:30:22 PM 32.5431 -97.4183 46° Northeast 375 432 11,000 -49 Level Fort Worth Center
Tue 06:31:23 PM 32.6167 -97.3333 44° Northeast 336 387 10,900  Descending Dallas / Fort Worth TRACON
Tue 06:32:21 PM 32.6747 -97.2603 47° Northeast 324 373 11,000  Climbing Fort Worth Center
Tue 06:33:22 PM 32.7308 -97.1936 45° Northeast 294 338 10,900 -150 Descending Fort Worth Center
Tue 06:34:21 PM 32.7831 -97.1711 20° North 253 291 10,700 -807 Descending Fort Worth Center
Tue 06:35:21 PM 32.8519 -97.1686 North 229 264 9,300 -1,550 Descending Fort Worth Center
Tue 06:36:21 PM 32.9208 -97.1658 North 236 272 7,600 -1,550 Descending Fort Worth Center
Tue 06:37:21 PM 32.9917 -97.1658 360° North 246 283 6,200 -1,400 Descending Fort Worth Center
Tue 06:38:21 PM 33.0647 -97.1556 North 248 285 4,800 -1,172 Descending Fort Worth Center
Tue 06:39:29 PM 33.1000 -97.0833 60° Northeast 199 229 3,700 -971 Descending Dallas / Fort Worth TRACON

Login

Don't have an account? Register now (free) for customized features, flight alerts, and more!